sensor_id;sensor_type;location;lat;lon;timestamp;P1;durP1;ratioP1;P2;durP2;ratioP2
31537;SDS011;18147;51.952;6.146;2023-04-30T00:01:52;18.50;;;11.25;;
31537;SDS011;18147;51.952;6.146;2023-04-30T00:04:17;17.60;;;11.20;;
31537;SDS011;18147;51.952;6.146;2023-04-30T00:06:43;21.48;;;11.95;;
31537;SDS011;18147;51.952;6.146;2023-04-30T00:09:08;21.08;;;10.93;;
31537;SDS011;18147;51.952;6.146;2023-04-30T00:11:34;16.92;;;11.38;;
31537;SDS011;18147;51.952;6.146;2023-04-30T00:13:59;18.17;;;10.05;;
31537;SDS011;18147;51.952;6.146;2023-04-30T00:16:25;16.77;;;9.85;;
31537;SDS011;18147;51.952;6.146;2023-04-30T00:18:51;17.25;;;10.52;;
31537;SDS011;18147;51.952;6.146;2023-04-30T00:21:16;18.42;;;10.63;;
31537;SDS011;18147;51.952;6.146;2023-04-30T00:23:42;20.08;;;9.82;;
31537;SDS011;18147;51.952;6.146;2023-04-30T00:26:08;22.10;;;11.93;;
31537;SDS011;18147;51.952;6.146;2023-04-30T00:28:35;19.30;;;11.18;;
31537;SDS011;18147;51.952;6.146;2023-04-30T00:31:01;16.40;;;10.82;;
31537;SDS011;18147;51.952;6.146;2023-04-30T00:33:26;18.42;;;10.60;;
31537;SDS011;18147;51.952;6.146;2023-04-30T00:35:52;27.95;;;12.07;;
31537;SDS011;18147;51.952;6.146;2023-04-30T00:38:18;16.75;;;10.38;;
31537;SDS011;18147;51.952;6.146;2023-04-30T00:40:44;19.02;;;10.88;;
31537;SDS011;18147;51.952;6.146;2023-04-30T00:43:10;24.35;;;11.13;;
31537;SDS011;18147;51.952;6.146;2023-04-30T00:45:36;24.85;;;12.77;;
31537;SDS011;18147;51.952;6.146;2023-04-30T00:48:02;19.30;;;11.98;;
31537;SDS011;18147;51.952;6.146;2023-04-30T00:50:28;21.67;;;12.50;;
31537;SDS011;18147;51.952;6.146;2023-04-30T00:52:53;24.90;;;11.75;;
31537;SDS011;18147;51.952;6.146;2023-04-30T00:55:20;17.65;;;11.70;;
31537;SDS011;18147;51.952;6.146;2023-04-30T00:57:45;22.48;;;11.63;;
31537;SDS011;18147;51.952;6.146;2023-04-30T01:00:11;21.63;;;12.70;;
31537;SDS011;18147;51.952;6.146;2023-04-30T01:02:38;25.80;;;13.00;;
31537;SDS011;18147;51.952;6.146;2023-04-30T01:05:05;23.75;;;11.88;;
31537;SDS011;18147;51.952;6.146;2023-04-30T01:07:35;23.13;;;13.38;;
31537;SDS011;18147;51.952;6.146;2023-04-30T01:10:03;27.67;;;15.53;;
31537;SDS011;18147;51.952;6.146;2023-04-30T01:13:15;20.55;;;13.38;;
31537;SDS011;18147;51.952;6.146;2023-04-30T01:15:37;26.33;;;13.07;;
31537;SDS011;18147;51.952;6.146;2023-04-30T01:18:22;21.35;;;13.38;;
31537;SDS011;18147;51.952;6.146;2023-04-30T01:20:50;22.25;;;12.98;;
31537;SDS011;18147;51.952;6.146;2023-04-30T01:28:51;21.88;;;11.73;;
31537;SDS011;18147;51.952;6.146;2023-04-30T01:31:18;21.92;;;12.43;;
31537;SDS011;18147;51.952;6.146;2023-04-30T01:33:44;21.98;;;12.63;;
31537;SDS011;18147;51.952;6.146;2023-04-30T01:36:28;24.45;;;13.75;;
31537;SDS011;18147;51.952;6.146;2023-04-30T01:44:38;22.05;;;13.50;;
31537;SDS011;18147;51.952;6.146;2023-04-30T01:49:55;19.38;;;11.25;;
31537;SDS011;18147;51.952;6.146;2023-04-30T01:52:31;17.45;;;11.85;;
31537;SDS011;18147;51.952;6.146;2023-04-30T01:55:07;21.55;;;10.82;;
31537;SDS011;18147;51.952;6.146;2023-04-30T01:57:37;12.45;;;7.82;;
31537;SDS011;18147;51.952;6.146;2023-04-30T02:00:06;10.93;;;6.55;;
31537;SDS011;18147;51.952;6.146;2023-04-30T02:02:40;9.38;;;6.03;;
31537;SDS011;18147;51.952;6.146;2023-04-30T02:05:05;8.82;;;6.20;;
31537;SDS011;18147;51.952;6.146;2023-04-30T02:10:11;27.23;;;10.95;;
31537;SDS011;18147;51.952;6.146;2023-04-30T02:12:37;43.95;;;11.20;;
31537;SDS011;18147;51.952;6.146;2023-04-30T02:15:03;15.55;;;10.68;;
31537;SDS011;18147;51.952;6.146;2023-04-30T02:17:29;18.10;;;11.38;;
31537;SDS011;18147;51.952;6.146;2023-04-30T02:19:56;20.50;;;12.20;;
31537;SDS011;18147;51.952;6.146;2023-04-30T02:22:22;28.92;;;13.23;;
31537;SDS011;18147;51.952;6.146;2023-04-30T02:24:48;20.48;;;11.77;;
31537;SDS011;18147;51.952;6.146;2023-04-30T02:27:14;24.63;;;14.15;;
31537;SDS011;18147;51.952;6.146;2023-04-30T02:29:40;23.27;;;12.45;;
31537;SDS011;18147;51.952;6.146;2023-04-30T02:32:06;28.73;;;15.18;;
31537;SDS011;18147;51.952;6.146;2023-04-30T02:34:31;25.73;;;15.02;;
31537;SDS011;18147;51.952;6.146;2023-04-30T02:36:57;27.67;;;15.38;;
31537;SDS011;18147;51.952;6.146;2023-04-30T02:39:23;29.67;;;15.75;;
31537;SDS011;18147;51.952;6.146;2023-04-30T02:41:49;26.25;;;15.02;;
31537;SDS011;18147;51.952;6.146;2023-04-30T02:44:14;24.65;;;14.35;;
31537;SDS011;18147;51.952;6.146;2023-04-30T02:46:40;29.25;;;15.70;;
31537;SDS011;18147;51.952;6.146;2023-04-30T02:49:05;25.95;;;13.77;;
31537;SDS011;18147;51.952;6.146;2023-04-30T02:51:31;23.17;;;12.70;;
31537;SDS011;18147;51.952;6.146;2023-04-30T02:53:57;24.98;;;13.65;;
31537;SDS011;18147;51.952;6.146;2023-04-30T02:56:23;22.00;;;13.90;;
31537;SDS011;18147;51.952;6.146;2023-04-30T02:58:48;22.42;;;13.68;;
31537;SDS011;18147;51.952;6.146;2023-04-30T03:01:14;23.70;;;13.88;;
31537;SDS011;18147;51.952;6.146;2023-04-30T03:03:40;28.77;;;16.20;;
31537;SDS011;18147;51.952;6.146;2023-04-30T03:06:08;28.38;;;15.20;;
31537;SDS011;18147;51.952;6.146;2023-04-30T03:08:34;26.98;;;15.25;;
31537;SDS011;18147;51.952;6.146;2023-04-30T03:10:59;24.42;;;13.68;;
31537;SDS011;18147;51.952;6.146;2023-04-30T03:13:25;23.17;;;13.30;;
31537;SDS011;18147;51.952;6.146;2023-04-30T03:16:00;28.25;;;14.93;;
31537;SDS011;18147;51.952;6.146;2023-04-30T03:18:28;22.00;;;13.80;;
31537;SDS011;18147;51.952;6.146;2023-04-30T03:20:55;24.98;;;15.25;;
31537;SDS011;18147;51.952;6.146;2023-04-30T03:23:21;23.45;;;13.75;;
31537;SDS011;18147;51.952;6.146;2023-04-30T03:25:46;18.50;;;12.32;;
31537;SDS011;18147;51.952;6.146;2023-04-30T03:28:12;24.88;;;13.55;;
31537;SDS011;18147;51.952;6.146;2023-04-30T03:30:38;23.95;;;13.77;;
31537;SDS011;18147;51.952;6.146;2023-04-30T03:33:04;19.38;;;11.88;;
31537;SDS011;18147;51.952;6.146;2023-04-30T03:35:33;24.65;;;12.75;;
31537;SDS011;18147;51.952;6.146;2023-04-30T03:37:59;19.45;;;11.60;;
31537;SDS011;18147;51.952;6.146;2023-04-30T03:40:25;21.15;;;13.05;;
31537;SDS011;18147;51.952;6.146;2023-04-30T03:42:51;31.10;;;15.90;;
31537;SDS011;18147;51.952;6.146;2023-04-30T03:45:17;33.95;;;17.33;;
31537;SDS011;18147;51.952;6.146;2023-04-30T03:47:43;31.15;;;15.57;;
31537;SDS011;18147;51.952;6.146;2023-04-30T03:50:09;26.25;;;16.92;;
31537;SDS011;18147;51.952;6.146;2023-04-30T03:52:35;28.17;;;16.15;;
31537;SDS011;18147;51.952;6.146;2023-04-30T03:55:02;26.83;;;15.82;;
31537;SDS011;18147;51.952;6.146;2023-04-30T03:57:28;33.95;;;17.92;;
31537;SDS011;18147;51.952;6.146;2023-04-30T03:59:54;25.75;;;14.98;;
31537;SDS011;18147;51.952;6.146;2023-04-30T04:02:20;29.08;;;16.05;;
31537;SDS011;18147;51.952;6.146;2023-04-30T04:04:46;26.52;;;15.25;;
31537;SDS011;18147;51.952;6.146;2023-04-30T04:07:12;27.00;;;16.17;;
31537;SDS011;18147;51.952;6.146;2023-04-30T04:09:39;27.45;;;15.68;;
31537;SDS011;18147;51.952;6.146;2023-04-30T04:12:05;29.63;;;16.70;;
31537;SDS011;18147;51.952;6.146;2023-04-30T04:14:31;33.45;;;17.08;;
31537;SDS011;18147;51.952;6.146;2023-04-30T04:16:57;32.97;;;17.75;;
31537;SDS011;18147;51.952;6.146;2023-04-30T04:19:24;28.45;;;16.38;;
31537;SDS011;18147;51.952;6.146;2023-04-30T04:21:50;31.67;;;17.05;;
31537;SDS011;18147;51.952;6.146;2023-04-30T04:24:16;31.80;;;16.65;;
31537;SDS011;18147;51.952;6.146;2023-04-30T04:26:42;26.45;;;16.35;;
31537;SDS011;18147;51.952;6.146;2023-04-30T04:29:08;27.40;;;15.95;;
31537;SDS011;18147;51.952;6.146;2023-04-30T04:31:36;28.80;;;16.15;;
31537;SDS011;18147;51.952;6.146;2023-04-30T04:34:03;23.38;;;14.25;;
31537;SDS011;18147;51.952;6.146;2023-04-30T04:36:30;32.85;;;16.88;;
31537;SDS011;18147;51.952;6.146;2023-04-30T04:38:58;28.05;;;15.02;;
31537;SDS011;18147;51.952;6.146;2023-04-30T04:41:28;21.45;;;13.25;;
31537;SDS011;18147;51.952;6.146;2023-04-30T04:43:57;21.27;;;14.10;;
31537;SDS011;18147;51.952;6.146;2023-04-30T04:46:27;22.08;;;14.63;;
31537;SDS011;18147;51.952;6.146;2023-04-30T04:48:54;21.30;;;14.00;;
31537;SDS011;18147;51.952;6.146;2023-04-30T04:51:20;20.67;;;14.05;;
31537;SDS011;18147;51.952;6.146;2023-04-30T04:53:45;17.92;;;12.93;;
31537;SDS011;18147;51.952;6.146;2023-04-30T04:56:11;21.15;;;12.05;;
31537;SDS011;18147;51.952;6.146;2023-04-30T04:58:37;15.43;;;11.30;;
31537;SDS011;18147;51.952;6.146;2023-04-30T05:01:03;16.02;;;11.60;;
31537;SDS011;18147;51.952;6.146;2023-04-30T05:03:30;17.70;;;12.30;;
31537;SDS011;18147;51.952;6.146;2023-04-30T05:05:58;19.88;;;13.18;;
31537;SDS011;18147;51.952;6.146;2023-04-30T05:08:24;21.90;;;14.13;;
31537;SDS011;18147;51.952;6.146;2023-04-30T05:10:49;15.18;;;11.57;;
31537;SDS011;18147;51.952;6.146;2023-04-30T05:13:15;16.70;;;12.05;;
31537;SDS011;18147;51.952;6.146;2023-04-30T05:15:41;17.42;;;12.48;;
31537;SDS011;18147;51.952;6.146;2023-04-30T05:18:06;19.58;;;11.43;;
31537;SDS011;18147;51.952;6.146;2023-04-30T05:20:33;17.73;;;11.63;;
31537;SDS011;18147;51.952;6.146;2023-04-30T05:22:58;17.00;;;11.35;;
31537;SDS011;18147;51.952;6.146;2023-04-30T05:25:24;20.02;;;12.10;;
31537;SDS011;18147;51.952;6.146;2023-04-30T05:27:49;15.88;;;11.27;;
31537;SDS011;18147;51.952;6.146;2023-04-30T05:30:15;14.40;;;11.07;;
31537;SDS011;18147;51.952;6.146;2023-04-30T05:32:41;16.60;;;11.10;;
31537;SDS011;18147;51.952;6.146;2023-04-30T05:35:06;14.05;;;10.15;;
31537;SDS011;18147;51.952;6.146;2023-04-30T05:37:33;15.10;;;11.65;;
31537;SDS011;18147;51.952;6.146;2023-04-30T05:39:58;17.17;;;11.30;;
31537;SDS011;18147;51.952;6.146;2023-04-30T05:42:24;17.60;;;11.80;;
31537;SDS011;18147;51.952;6.146;2023-04-30T05:44:49;17.67;;;12.27;;
31537;SDS011;18147;51.952;6.146;2023-04-30T05:47:15;20.15;;;11.40;;
31537;SDS011;18147;51.952;6.146;2023-04-30T05:49:41;19.02;;;11.82;;
31537;SDS011;18147;51.952;6.146;2023-04-30T05:52:06;15.80;;;11.00;;
31537;SDS011;18147;51.952;6.146;2023-04-30T05:54:32;13.30;;;10.52;;
31537;SDS011;18147;51.952;6.146;2023-04-30T05:56:57;17.17;;;11.15;;
31537;SDS011;18147;51.952;6.146;2023-04-30T05:59:23;12.60;;;10.45;;
31537;SDS011;18147;51.952;6.146;2023-04-30T06:01:50;15.80;;;10.35;;
31537;SDS011;18147;51.952;6.146;2023-04-30T06:04:15;16.85;;;9.98;;
31537;SDS011;18147;51.952;6.146;2023-04-30T06:06:42;18.95;;;10.95;;
31537;SDS011;18147;51.952;6.146;2023-04-30T06:09:07;14.80;;;9.75;;
31537;SDS011;18147;51.952;6.146;2023-04-30T06:11:34;13.27;;;9.30;;
31537;SDS011;18147;51.952;6.146;2023-04-30T06:14:02;14.45;;;9.43;;
31537;SDS011;18147;51.952;6.146;2023-04-30T06:16:28;16.45;;;10.40;;
31537;SDS011;18147;51.952;6.146;2023-04-30T06:18:54;12.68;;;8.77;;
31537;SDS011;18147;51.952;6.146;2023-04-30T06:21:19;14.95;;;9.43;;
31537;SDS011;18147;51.952;6.146;2023-04-30T06:23:45;14.32;;;9.77;;
31537;SDS011;18147;51.952;6.146;2023-04-30T06:26:11;22.48;;;9.57;;
31537;SDS011;18147;51.952;6.146;2023-04-30T06:28:39;21.20;;;10.07;;
31537;SDS011;18147;51.952;6.146;2023-04-30T06:31:04;13.95;;;9.63;;
31537;SDS011;18147;51.952;6.146;2023-04-30T06:33:30;14.15;;;8.93;;
31537;SDS011;18147;51.952;6.146;2023-04-30T06:35:55;15.68;;;8.95;;
31537;SDS011;18147;51.952;6.146;2023-04-30T06:38:21;13.80;;;8.98;;
31537;SDS011;18147;51.952;6.146;2023-04-30T06:40:46;13.43;;;8.85;;
31537;SDS011;18147;51.952;6.146;2023-04-30T06:43:12;12.32;;;8.57;;
31537;SDS011;18147;51.952;6.146;2023-04-30T06:45:38;10.55;;;8.55;;
31537;SDS011;18147;51.952;6.146;2023-04-30T06:48:03;13.90;;;9.52;;
31537;SDS011;18147;51.952;6.146;2023-04-30T06:50:30;13.57;;;9.05;;
31537;SDS011;18147;51.952;6.146;2023-04-30T06:52:55;13.05;;;8.52;;
31537;SDS011;18147;51.952;6.146;2023-04-30T06:55:21;11.75;;;8.70;;
31537;SDS011;18147;51.952;6.146;2023-04-30T06:57:46;14.50;;;9.07;;
31537;SDS011;18147;51.952;6.146;2023-04-30T07:00:12;12.20;;;8.13;;
31537;SDS011;18147;51.952;6.146;2023-04-30T07:02:39;13.88;;;8.20;;
31537;SDS011;18147;51.952;6.146;2023-04-30T07:05:05;14.43;;;8.52;;
31537;SDS011;18147;51.952;6.146;2023-04-30T07:07:31;15.60;;;8.55;;
31537;SDS011;18147;51.952;6.146;2023-04-30T07:09:57;14.40;;;8.65;;
31537;SDS011;18147;51.952;6.146;2023-04-30T07:12:23;14.60;;;8.40;;
31537;SDS011;18147;51.952;6.146;2023-04-30T07:14:49;10.95;;;7.68;;
31537;SDS011;18147;51.952;6.146;2023-04-30T07:17:14;14.68;;;8.30;;
31537;SDS011;18147;51.952;6.146;2023-04-30T07:19:40;12.82;;;8.23;;
31537;SDS011;18147;51.952;6.146;2023-04-30T07:22:05;14.73;;;8.77;;
31537;SDS011;18147;51.952;6.146;2023-04-30T07:24:32;16.67;;;9.07;;
31537;SDS011;18147;51.952;6.146;2023-04-30T07:26:58;13.32;;;8.60;;
31537;SDS011;18147;51.952;6.146;2023-04-30T07:29:27;12.88;;;8.93;;
31537;SDS011;18147;51.952;6.146;2023-04-30T07:31:53;10.20;;;7.82;;
31537;SDS011;18147;51.952;6.146;2023-04-30T07:34:20;14.68;;;8.55;;
31537;SDS011;18147;51.952;6.146;2023-04-30T07:36:46;14.30;;;9.00;;
31537;SDS011;18147;51.952;6.146;2023-04-30T07:39:12;18.52;;;9.45;;
31537;SDS011;18147;51.952;6.146;2023-04-30T07:41:38;14.38;;;8.73;;
31537;SDS011;18147;51.952;6.146;2023-04-30T07:44:04;15.15;;;9.23;;
31537;SDS011;18147;51.952;6.146;2023-04-30T07:46:30;16.20;;;9.35;;
31537;SDS011;18147;51.952;6.146;2023-04-30T07:48:56;15.70;;;9.60;;
31537;SDS011;18147;51.952;6.146;2023-04-30T07:51:21;14.32;;;9.10;;
31537;SDS011;18147;51.952;6.146;2023-04-30T07:53:47;13.20;;;8.43;;
31537;SDS011;18147;51.952;6.146;2023-04-30T07:56:13;15.88;;;9.48;;
31537;SDS011;18147;51.952;6.146;2023-04-30T07:58:38;15.70;;;9.02;;
31537;SDS011;18147;51.952;6.146;2023-04-30T08:01:04;17.63;;;8.98;;
31537;SDS011;18147;51.952;6.146;2023-04-30T08:03:30;17.50;;;8.93;;
31537;SDS011;18147;51.952;6.146;2023-04-30T08:05:56;14.48;;;8.23;;
31537;SDS011;18147;51.952;6.146;2023-04-30T08:08:21;14.85;;;9.70;;
31537;SDS011;18147;51.952;6.146;2023-04-30T08:10:47;19.48;;;10.45;;
31537;SDS011;18147;51.952;6.146;2023-04-30T08:13:13;12.15;;;8.02;;
31537;SDS011;18147;51.952;6.146;2023-04-30T08:15:38;13.40;;;8.70;;
31537;SDS011;18147;51.952;6.146;2023-04-30T08:18:04;17.33;;;9.50;;
31537;SDS011;18147;51.952;6.146;2023-04-30T08:20:31;13.85;;;8.35;;
31537;SDS011;18147;51.952;6.146;2023-04-30T08:22:57;12.63;;;8.32;;
31537;SDS011;18147;51.952;6.146;2023-04-30T08:25:23;16.10;;;8.85;;
31537;SDS011;18147;51.952;6.146;2023-04-30T08:27:48;11.88;;;8.20;;
31537;SDS011;18147;51.952;6.146;2023-04-30T08:30:14;14.32;;;8.38;;
31537;SDS011;18147;51.952;6.146;2023-04-30T08:32:40;19.80;;;9.73;;
31537;SDS011;18147;51.952;6.146;2023-04-30T08:35:06;15.80;;;8.65;;
31537;SDS011;18147;51.952;6.146;2023-04-30T08:37:32;13.20;;;8.10;;
31537;SDS011;18147;51.952;6.146;2023-04-30T08:39:58;17.88;;;8.90;;
31537;SDS011;18147;51.952;6.146;2023-04-30T08:42:24;11.88;;;8.68;;
31537;SDS011;18147;51.952;6.146;2023-04-30T08:44:54;11.55;;;8.15;;
31537;SDS011;18147;51.952;6.146;2023-04-30T08:47:21;12.35;;;8.32;;
31537;SDS011;18147;51.952;6.146;2023-04-30T08:49:46;13.18;;;8.57;;
31537;SDS011;18147;51.952;6.146;2023-04-30T08:52:12;16.25;;;10.65;;
31537;SDS011;18147;51.952;6.146;2023-04-30T08:54:38;15.35;;;8.57;;
31537;SDS011;18147;51.952;6.146;2023-04-30T08:57:04;12.98;;;8.85;;
31537;SDS011;18147;51.952;6.146;2023-04-30T08:59:30;15.23;;;9.18;;
31537;SDS011;18147;51.952;6.146;2023-04-30T09:01:55;11.80;;;8.45;;
31537;SDS011;18147;51.952;6.146;2023-04-30T09:04:21;15.05;;;7.53;;
31537;SDS011;18147;51.952;6.146;2023-04-30T09:06:47;12.98;;;8.73;;
31537;SDS011;18147;51.952;6.146;2023-04-30T09:09:13;10.98;;;7.90;;
31537;SDS011;18147;51.952;6.146;2023-04-30T09:11:40;11.43;;;8.10;;
31537;SDS011;18147;51.952;6.146;2023-04-30T09:14:07;12.48;;;7.70;;
31537;SDS011;18147;51.952;6.146;2023-04-30T09:16:44;15.55;;;7.95;;
31537;SDS011;18147;51.952;6.146;2023-04-30T09:19:25;14.43;;;8.32;;
31537;SDS011;18147;51.952;6.146;2023-04-30T09:21:53;12.77;;;8.07;;
31537;SDS011;18147;51.952;6.146;2023-04-30T09:24:18;11.50;;;8.57;;
31537;SDS011;18147;51.952;6.146;2023-04-30T09:26:45;12.82;;;8.00;;
31537;SDS011;18147;51.952;6.146;2023-04-30T09:29:11;12.85;;;7.68;;
31537;SDS011;18147;51.952;6.146;2023-04-30T09:31:38;13.35;;;8.65;;
31537;SDS011;18147;51.952;6.146;2023-04-30T09:34:05;11.35;;;8.20;;
31537;SDS011;18147;51.952;6.146;2023-04-30T09:36:31;11.85;;;8.43;;
31537;SDS011;18147;51.952;6.146;2023-04-30T09:39:07;11.65;;;8.63;;
31537;SDS011;18147;51.952;6.146;2023-04-30T09:41:42;12.48;;;8.38;;
31537;SDS011;18147;51.952;6.146;2023-04-30T09:44:08;12.68;;;8.57;;
31537;SDS011;18147;51.952;6.146;2023-04-30T09:46:54;14.65;;;8.52;;
31537;SDS011;18147;51.952;6.146;2023-04-30T09:49:21;12.43;;;7.40;;
31537;SDS011;18147;51.952;6.146;2023-04-30T09:54:27;11.75;;;8.00;;
31537;SDS011;18147;51.952;6.146;2023-04-30T09:56:54;12.55;;;7.82;;
31537;SDS011;18147;51.952;6.146;2023-04-30T09:59:24;11.80;;;7.20;;
31537;SDS011;18147;51.952;6.146;2023-04-30T10:01:54;19.67;;;8.77;;
31537;SDS011;18147;51.952;6.146;2023-04-30T10:04:23;12.45;;;7.63;;
31537;SDS011;18147;51.952;6.146;2023-04-30T10:06:51;12.63;;;7.35;;
31537;SDS011;18147;51.952;6.146;2023-04-30T10:09:18;8.57;;;6.25;;
31537;SDS011;18147;51.952;6.146;2023-04-30T10:11:43;8.52;;;6.93;;
31537;SDS011;18147;51.952;6.146;2023-04-30T10:14:10;13.00;;;7.80;;
31537;SDS011;18147;51.952;6.146;2023-04-30T10:19:25;9.35;;;7.30;;
31537;SDS011;18147;51.952;6.146;2023-04-30T10:21:55;9.93;;;7.70;;
31537;SDS011;18147;51.952;6.146;2023-04-30T10:24:20;11.38;;;7.63;;
31537;SDS011;18147;51.952;6.146;2023-04-30T10:26:46;13.63;;;7.80;;
31537;SDS011;18147;51.952;6.146;2023-04-30T10:29:13;10.32;;;6.82;;
31537;SDS011;18147;51.952;6.146;2023-04-30T10:31:40;11.95;;;7.13;;
31537;SDS011;18147;51.952;6.146;2023-04-30T10:40:13;11.27;;;7.97;;
31537;SDS011;18147;51.952;6.146;2023-04-30T10:42:46;12.25;;;8.05;;
31537;SDS011;18147;51.952;6.146;2023-04-30T10:45:14;9.60;;;6.40;;
31537;SDS011;18147;51.952;6.146;2023-04-30T10:47:41;9.82;;;7.10;;
31537;SDS011;18147;51.952;6.146;2023-04-30T10:50:07;12.00;;;7.93;;
31537;SDS011;18147;51.952;6.146;2023-04-30T10:52:33;11.95;;;8.18;;
31537;SDS011;18147;51.952;6.146;2023-04-30T10:55:05;13.85;;;8.07;;
31537;SDS011;18147;51.952;6.146;2023-04-30T10:57:40;8.88;;;6.65;;
31537;SDS011;18147;51.952;6.146;2023-04-30T11:02:39;10.65;;;7.25;;
31537;SDS011;18147;51.952;6.146;2023-04-30T11:05:11;12.18;;;7.63;;
31537;SDS011;18147;51.952;6.146;2023-04-30T11:07:45;12.43;;;6.95;;
31537;SDS011;18147;51.952;6.146;2023-04-30T11:10:32;11.18;;;6.47;;
31537;SDS011;18147;51.952;6.146;2023-04-30T11:13:02;10.40;;;6.53;;
31537;SDS011;18147;51.952;6.146;2023-04-30T11:15:44;12.35;;;6.28;;
31537;SDS011;18147;51.952;6.146;2023-04-30T11:18:10;8.75;;;5.75;;
31537;SDS011;18147;51.952;6.146;2023-04-30T11:20:40;11.13;;;6.20;;
31537;SDS011;18147;51.952;6.146;2023-04-30T11:23:13;11.02;;;6.28;;
31537;SDS011;18147;51.952;6.146;2023-04-30T11:25:42;14.05;;;6.03;;
31537;SDS011;18147;51.952;6.146;2023-04-30T11:28:16;12.57;;;5.47;;
31537;SDS011;18147;51.952;6.146;2023-04-30T11:31:04;5.63;;;5.07;;
31537;SDS011;18147;51.952;6.146;2023-04-30T11:33:31;9.50;;;5.40;;
31537;SDS011;18147;51.952;6.146;2023-04-30T11:50:41;8.85;;;5.15;;
31537;SDS011;18147;51.952;6.146;2023-04-30T11:53:08;11.75;;;6.18;;
31537;SDS011;18147;51.952;6.146;2023-04-30T11:55:34;5.78;;;4.85;;
31537;SDS011;18147;51.952;6.146;2023-04-30T11:58:01;9.80;;;5.10;;
31537;SDS011;18147;51.952;6.146;2023-04-30T12:00:28;9.63;;;5.72;;
31537;SDS011;18147;51.952;6.146;2023-04-30T12:02:55;8.25;;;5.22;;
31537;SDS011;18147;51.952;6.146;2023-04-30T12:05:23;8.50;;;4.35;;
31537;SDS011;18147;51.952;6.146;2023-04-30T12:07:53;7.22;;;5.15;;
31537;SDS011;18147;51.952;6.146;2023-04-30T12:10:21;4.97;;;3.80;;
31537;SDS011;18147;51.952;6.146;2023-04-30T12:12:49;6.40;;;4.70;;
31537;SDS011;18147;51.952;6.146;2023-04-30T12:15:19;8.00;;;4.22;;
31537;SDS011;18147;51.952;6.146;2023-04-30T12:17:51;5.32;;;3.90;;
31537;SDS011;18147;51.952;6.146;2023-04-30T12:20:21;6.32;;;4.28;;
31537;SDS011;18147;51.952;6.146;2023-04-30T12:22:48;5.38;;;4.20;;
31537;SDS011;18147;51.952;6.146;2023-04-30T12:25:15;6.00;;;4.53;;
31537;SDS011;18147;51.952;6.146;2023-04-30T12:27:47;7.35;;;4.53;;
31537;SDS011;18147;51.952;6.146;2023-04-30T12:30:14;9.30;;;4.30;;
31537;SDS011;18147;51.952;6.146;2023-04-30T12:32:44;4.55;;;3.83;;
31537;SDS011;18147;51.952;6.146;2023-04-30T12:35:14;6.93;;;3.97;;
31537;SDS011;18147;51.952;6.146;2023-04-30T12:37:44;7.30;;;4.40;;
31537;SDS011;18147;51.952;6.146;2023-04-30T12:40:12;10.70;;;3.40;;
31537;SDS011;18147;51.952;6.146;2023-04-30T12:42:40;3.88;;;3.15;;
31537;SDS011;18147;51.952;6.146;2023-04-30T12:45:07;5.93;;;3.75;;
31537;SDS011;18147;51.952;6.146;2023-04-30T12:47:36;7.93;;;4.43;;
31537;SDS011;18147;51.952;6.146;2023-04-30T12:50:07;7.80;;;4.20;;
31537;SDS011;18147;51.952;6.146;2023-04-30T12:52:34;5.82;;;3.70;;
31537;SDS011;18147;51.952;6.146;2023-04-30T12:58:12;7.03;;;3.25;;
31537;SDS011;18147;51.952;6.146;2023-04-30T13:00:43;6.50;;;3.03;;
31537;SDS011;18147;51.952;6.146;2023-04-30T13:03:10;4.60;;;3.75;;
31537;SDS011;18147;51.952;6.146;2023-04-30T13:05:37;5.10;;;3.67;;
31537;SDS011;18147;51.952;6.146;2023-04-30T13:08:06;7.25;;;3.28;;
31537;SDS011;18147;51.952;6.146;2023-04-30T13:10:32;3.72;;;2.40;;
31537;SDS011;18147;51.952;6.146;2023-04-30T13:12:58;4.22;;;2.83;;
31537;SDS011;18147;51.952;6.146;2023-04-30T13:15:24;4.68;;;2.50;;
31537;SDS011;18147;51.952;6.146;2023-04-30T13:17:51;3.80;;;2.10;;
31537;SDS011;18147;51.952;6.146;2023-04-30T13:20:19;3.70;;;2.08;;
31537;SDS011;18147;51.952;6.146;2023-04-30T13:22:44;4.55;;;2.15;;
31537;SDS011;18147;51.952;6.146;2023-04-30T13:25:10;2.50;;;1.85;;
31537;SDS011;18147;51.952;6.146;2023-04-30T13:27:36;4.80;;;2.60;;
31537;SDS011;18147;51.952;6.146;2023-04-30T13:30:02;3.88;;;2.17;;
31537;SDS011;18147;51.952;6.146;2023-04-30T13:32:28;8.98;;;2.90;;
31537;SDS011;18147;51.952;6.146;2023-04-30T13:34:54;4.50;;;2.20;;
31537;SDS011;18147;51.952;6.146;2023-04-30T13:37:21;3.78;;;1.90;;
31537;SDS011;18147;51.952;6.146;2023-04-30T13:39:47;1.95;;;1.55;;
31537;SDS011;18147;51.952;6.146;2023-04-30T13:42:13;4.97;;;2.00;;
31537;SDS011;18147;51.952;6.146;2023-04-30T13:44:39;4.93;;;1.90;;
31537;SDS011;18147;51.952;6.146;2023-04-30T13:47:05;5.70;;;2.20;;
31537;SDS011;18147;51.952;6.146;2023-04-30T13:49:32;5.38;;;2.47;;
31537;SDS011;18147;51.952;6.146;2023-04-30T13:52:02;3.40;;;2.35;;
31537;SDS011;18147;51.952;6.146;2023-04-30T13:54:28;4.07;;;3.10;;
31537;SDS011;18147;51.952;6.146;2023-04-30T13:56:55;2.95;;;1.98;;
31537;SDS011;18147;51.952;6.146;2023-04-30T13:59:21;2.95;;;2.03;;
31537;SDS011;18147;51.952;6.146;2023-04-30T14:01:47;4.57;;;1.92;;
31537;SDS011;18147;51.952;6.146;2023-04-30T14:04:13;2.25;;;1.75;;
31537;SDS011;18147;51.952;6.146;2023-04-30T14:06:42;5.97;;;2.50;;
31537;SDS011;18147;51.952;6.146;2023-04-30T14:09:08;3.65;;;2.60;;
31537;SDS011;18147;51.952;6.146;2023-04-30T14:11:34;6.43;;;2.30;;
31537;SDS011;18147;51.952;6.146;2023-04-30T14:13:59;3.15;;;1.80;;
31537;SDS011;18147;51.952;6.146;2023-04-30T14:16:25;2.97;;;1.55;;
31537;SDS011;18147;51.952;6.146;2023-04-30T14:18:51;4.07;;;1.80;;
31537;SDS011;18147;51.952;6.146;2023-04-30T14:21:20;3.83;;;1.85;;
31537;SDS011;18147;51.952;6.146;2023-04-30T14:23:47;2.53;;;1.33;;
31537;SDS011;18147;51.952;6.146;2023-04-30T14:26:13;4.97;;;1.70;;
31537;SDS011;18147;51.952;6.146;2023-04-30T14:28:39;2.28;;;1.60;;
31537;SDS011;18147;51.952;6.146;2023-04-30T14:31:05;3.25;;;1.77;;
31537;SDS011;18147;51.952;6.146;2023-04-30T14:33:31;4.20;;;2.03;;
31537;SDS011;18147;51.952;6.146;2023-04-30T14:35:57;2.83;;;1.20;;
31537;SDS011;18147;51.952;6.146;2023-04-30T14:38:26;2.67;;;1.50;;
31537;SDS011;18147;51.952;6.146;2023-04-30T14:40:52;2.78;;;1.60;;
31537;SDS011;18147;51.952;6.146;2023-04-30T14:43:18;5.75;;;2.40;;
31537;SDS011;18147;51.952;6.146;2023-04-30T14:45:44;2.28;;;1.80;;
31537;SDS011;18147;51.952;6.146;2023-04-30T14:48:10;13.70;;;2.35;;
31537;SDS011;18147;51.952;6.146;2023-04-30T14:50:36;5.75;;;2.03;;
31537;SDS011;18147;51.952;6.146;2023-04-30T14:53:05;2.95;;;1.55;;
31537;SDS011;18147;51.952;6.146;2023-04-30T14:55:32;5.47;;;1.50;;
31537;SDS011;18147;51.952;6.146;2023-04-30T14:57:58;2.75;;;1.65;;
31537;SDS011;18147;51.952;6.146;2023-04-30T15:00:24;1.63;;;1.40;;
31537;SDS011;18147;51.952;6.146;2023-04-30T15:02:49;3.53;;;1.45;;
31537;SDS011;18147;51.952;6.146;2023-04-30T15:05:15;2.53;;;1.27;;
31537;SDS011;18147;51.952;6.146;2023-04-30T15:07:41;4.07;;;1.27;;
31537;SDS011;18147;51.952;6.146;2023-04-30T15:10:07;3.00;;;1.75;;
31537;SDS011;18147;51.952;6.146;2023-04-30T15:12:34;3.80;;;1.42;;
31537;SDS011;18147;51.952;6.146;2023-04-30T15:15:00;2.22;;;1.05;;
31537;SDS011;18147;51.952;6.146;2023-04-30T15:17:28;3.20;;;1.20;;
31537;SDS011;18147;51.952;6.146;2023-04-30T15:19:54;2.42;;;1.10;;
31537;SDS011;18147;51.952;6.146;2023-04-30T15:22:23;2.25;;;1.20;;